sensor_id;sensor_type;location;lat;lon;timestamp;P1;durP1;ratioP1;P2;durP2;ratioP2
8982;SDS011;20979;59.850;10.660;2022-08-18T00:20:13;1.57;;;1.20;;
8982;SDS011;20979;59.850;10.660;2022-08-18T00:22:53;2.47;;;1.10;;
8982;SDS011;20979;59.850;10.660;2022-08-18T00:25:33;1.47;;;1.17;;
8982;SDS011;20979;59.850;10.660;2022-08-18T00:28:01;1.10;;;1.10;;
8982;SDS011;20979;59.850;10.660;2022-08-18T00:33:29;1.60;;;0.87;;
8982;SDS011;20979;59.850;10.660;2022-08-18T00:38:51;4.03;;;1.10;;
8982;SDS011;20979;59.850;10.660;2022-08-18T00:41:19;2.70;;;1.20;;
8982;SDS011;20979;59.850;10.660;2022-08-18T00:53:01;3.30;;;1.17;;
8982;SDS011;20979;59.850;10.660;2022-08-18T00:55:31;2.43;;;1.17;;
8982;SDS011;20979;59.850;10.660;2022-08-18T01:01:29;1.83;;;1.23;;
8982;SDS011;20979;59.850;10.660;2022-08-18T01:04:14;1.10;;;1.00;;
8982;SDS011;20979;59.850;10.660;2022-08-18T01:06:47;1.93;;;0.93;;
8982;SDS011;20979;59.850;10.660;2022-08-18T01:09:16;2.47;;;1.10;;
8982;SDS011;20979;59.850;10.660;2022-08-18T01:11:48;1.30;;;1.20;;
8982;SDS011;20979;59.850;10.660;2022-08-18T01:17:35;1.30;;;1.00;;
8982;SDS011;20979;59.850;10.660;2022-08-18T01:20:22;1.17;;;1.10;;
8982;SDS011;20979;59.850;10.660;2022-08-18T01:26:23;1.50;;;1.00;;
8982;SDS011;20979;59.850;10.660;2022-08-18T01:29:24;1.80;;;0.80;;
8982;SDS011;20979;59.850;10.660;2022-08-18T01:31:59;2.43;;;1.13;;
8982;SDS011;20979;59.850;10.660;2022-08-18T01:34:27;2.23;;;1.00;;
8982;SDS011;20979;59.850;10.660;2022-08-18T01:36:54;1.00;;;1.00;;
8982;SDS011;20979;59.850;10.660;2022-08-18T01:39:25;0.80;;;0.80;;
8982;SDS011;20979;59.850;10.660;2022-08-18T01:41:54;2.40;;;1.10;;
8982;SDS011;20979;59.850;10.660;2022-08-18T01:44:21;1.57;;;0.93;;
8982;SDS011;20979;59.850;10.660;2022-08-18T01:46:49;2.57;;;1.23;;
8982;SDS011;20979;59.850;10.660;2022-08-18T01:49:26;1.63;;;1.20;;
8982;SDS011;20979;59.850;10.660;2022-08-18T01:51:53;4.00;;;1.47;;
8982;SDS011;20979;59.850;10.660;2022-08-18T01:54:21;0.90;;;0.90;;
8982;SDS011;20979;59.850;10.660;2022-08-18T01:56:48;1.90;;;1.27;;
8982;SDS011;20979;59.850;10.660;2022-08-18T01:59:18;2.43;;;1.13;;
8982;SDS011;20979;59.850;10.660;2022-08-18T02:01:46;2.17;;;1.13;;
8982;SDS011;20979;59.850;10.660;2022-08-18T02:04:17;2.20;;;1.10;;
8982;SDS011;20979;59.850;10.660;2022-08-18T02:12:57;5.47;;;1.43;;
8982;SDS011;20979;59.850;10.660;2022-08-18T02:18:20;1.33;;;1.10;;
8982;SDS011;20979;59.850;10.660;2022-08-18T02:20:50;2.30;;;1.20;;
8982;SDS011;20979;59.850;10.660;2022-08-18T02:23:36;2.27;;;1.30;;
8982;SDS011;20979;59.850;10.660;2022-08-18T02:26:04;1.53;;;1.10;;
8982;SDS011;20979;59.850;10.660;2022-08-18T02:28:32;4.53;;;1.40;;
8982;SDS011;20979;59.850;10.660;2022-08-18T02:31:02;2.60;;;1.20;;
8982;SDS011;20979;59.850;10.660;2022-08-18T02:33:45;1.40;;;1.27;;
8982;SDS011;20979;59.850;10.660;2022-08-18T02:36:29;2.30;;;1.40;;
8982;SDS011;20979;59.850;10.660;2022-08-18T02:42:01;1.90;;;1.33;;
8982;SDS011;20979;59.850;10.660;2022-08-18T02:44:28;5.50;;;1.60;;
8982;SDS011;20979;59.850;10.660;2022-08-18T02:46:57;2.83;;;1.53;;
8982;SDS011;20979;59.850;10.660;2022-08-18T02:49:26;2.97;;;1.50;;
8982;SDS011;20979;59.850;10.660;2022-08-18T02:54:53;3.17;;;1.43;;
8982;SDS011;20979;59.850;10.660;2022-08-18T02:57:21;3.50;;;1.47;;
8982;SDS011;20979;59.850;10.660;2022-08-18T02:59:48;2.73;;;1.47;;
8982;SDS011;20979;59.850;10.660;2022-08-18T03:05:34;3.97;;;1.80;;
8982;SDS011;20979;59.850;10.660;2022-08-18T03:08:05;3.23;;;1.50;;
8982;SDS011;20979;59.850;10.660;2022-08-18T03:13:18;2.90;;;1.47;;
8982;SDS011;20979;59.850;10.660;2022-08-18T03:15:45;2.97;;;1.20;;
8982;SDS011;20979;59.850;10.660;2022-08-18T03:18:33;5.60;;;1.80;;
8982;SDS011;20979;59.850;10.660;2022-08-18T03:21:05;3.33;;;1.43;;
8982;SDS011;20979;59.850;10.660;2022-08-18T03:23:38;3.20;;;1.60;;
8982;SDS011;20979;59.850;10.660;2022-08-18T03:26:06;3.60;;;1.60;;
8982;SDS011;20979;59.850;10.660;2022-08-18T03:28:36;2.00;;;1.50;;
8982;SDS011;20979;59.850;10.660;2022-08-18T03:31:18;3.27;;;1.73;;
8982;SDS011;20979;59.850;10.660;2022-08-18T03:33:46;2.03;;;1.53;;
8982;SDS011;20979;59.850;10.660;2022-08-18T03:36:18;4.37;;;1.70;;
8982;SDS011;20979;59.850;10.660;2022-08-18T03:38:49;3.73;;;1.50;;
8982;SDS011;20979;59.850;10.660;2022-08-18T03:41:17;3.83;;;1.70;;
8982;SDS011;20979;59.850;10.660;2022-08-18T03:43:47;3.07;;;1.70;;
8982;SDS011;20979;59.850;10.660;2022-08-18T03:49:50;2.03;;;1.37;;
8982;SDS011;20979;59.850;10.660;2022-08-18T03:52:19;3.27;;;1.70;;
8982;SDS011;20979;59.850;10.660;2022-08-18T03:54:47;3.50;;;1.80;;
8982;SDS011;20979;59.850;10.660;2022-08-18T04:00:36;4.00;;;1.90;;
8982;SDS011;20979;59.850;10.660;2022-08-18T04:03:04;2.37;;;1.63;;
8982;SDS011;20979;59.850;10.660;2022-08-18T04:05:45;3.17;;;1.80;;
8982;SDS011;20979;59.850;10.660;2022-08-18T04:08:14;3.93;;;2.00;;
8982;SDS011;20979;59.850;10.660;2022-08-18T04:13:39;2.97;;;1.90;;
8982;SDS011;20979;59.850;10.660;2022-08-18T04:16:07;3.80;;;1.90;;
8982;SDS011;20979;59.850;10.660;2022-08-18T04:18:43;3.47;;;1.90;;
8982;SDS011;20979;59.850;10.660;2022-08-18T04:21:11;3.87;;;1.90;;
8982;SDS011;20979;59.850;10.660;2022-08-18T04:27:07;2.67;;;1.60;;
8982;SDS011;20979;59.850;10.660;2022-08-18T04:29:35;2.70;;;1.90;;
8982;SDS011;20979;59.850;10.660;2022-08-18T04:41:09;3.30;;;1.60;;
8982;SDS011;20979;59.850;10.660;2022-08-18T04:56:07;1.67;;;1.43;;
8982;SDS011;20979;59.850;10.660;2022-08-18T04:58:34;4.40;;;1.40;;
8982;SDS011;20979;59.850;10.660;2022-08-18T05:04:39;3.03;;;1.50;;
8982;SDS011;20979;59.850;10.660;2022-08-18T05:07:11;2.47;;;1.37;;
8982;SDS011;20979;59.850;10.660;2022-08-18T05:15:55;2.27;;;1.47;;
8982;SDS011;20979;59.850;10.660;2022-08-18T05:18:37;2.20;;;1.53;;
8982;SDS011;20979;59.850;10.660;2022-08-18T05:24:12;1.97;;;1.33;;
8982;SDS011;20979;59.850;10.660;2022-08-18T05:26:54;2.13;;;1.40;;
8982;SDS011;20979;59.850;10.660;2022-08-18T05:29:21;3.40;;;1.77;;
8982;SDS011;20979;59.850;10.660;2022-08-18T05:31:53;2.83;;;1.43;;
8982;SDS011;20979;59.850;10.660;2022-08-18T05:34:34;2.57;;;1.47;;
8982;SDS011;20979;59.850;10.660;2022-08-18T05:37:20;1.30;;;1.20;;
8982;SDS011;20979;59.850;10.660;2022-08-18T05:40:12;2.00;;;1.30;;
8982;SDS011;20979;59.850;10.660;2022-08-18T05:52:06;2.90;;;1.40;;
8982;SDS011;20979;59.850;10.660;2022-08-18T05:57:37;2.43;;;1.20;;
8982;SDS011;20979;59.850;10.660;2022-08-18T06:22:05;3.27;;;1.23;;
8982;SDS011;20979;59.850;10.660;2022-08-18T07:33:56;3.67;;;1.80;;
8982;SDS011;20979;59.850;10.660;2022-08-18T07:40:02;2.83;;;1.80;;
8982;SDS011;20979;59.850;10.660;2022-08-18T07:42:48;4.57;;;1.90;;
8982;SDS011;20979;59.850;10.660;2022-08-18T08:33:32;3.13;;;2.00;;
8982;SDS011;20979;59.850;10.660;2022-08-18T08:36:20;5.70;;;2.30;;
8982;SDS011;20979;59.850;10.660;2022-08-18T08:38:51;3.00;;;2.03;;
8982;SDS011;20979;59.850;10.660;2022-08-18T08:44:51;5.20;;;2.07;;
8982;SDS011;20979;59.850;10.660;2022-08-18T08:47:43;6.70;;;2.40;;
8982;SDS011;20979;59.850;10.660;2022-08-18T08:50:13;3.80;;;2.27;;
8982;SDS011;20979;59.850;10.660;2022-08-18T08:52:43;4.17;;;2.30;;
8982;SDS011;20979;59.850;10.660;2022-08-18T08:58:29;4.33;;;2.40;;
8982;SDS011;20979;59.850;10.660;2022-08-18T09:40:18;3.07;;;2.23;;
8982;SDS011;20979;59.850;10.660;2022-08-18T09:55:55;5.80;;;2.63;;
8982;SDS011;20979;59.850;10.660;2022-08-18T10:01:19;3.37;;;2.50;;
8982;SDS011;20979;59.850;10.660;2022-08-18T10:06:35;4.97;;;2.20;;
8982;SDS011;20979;59.850;10.660;2022-08-18T10:09:13;2.72;;;2.30;;
8982;SDS011;20979;59.850;10.660;2022-08-18T10:11:46;2.95;;;2.20;;
8982;SDS011;20979;59.850;10.660;2022-08-18T10:14:22;2.70;;;2.10;;
8982;SDS011;20979;59.850;10.660;2022-08-18T10:16:54;4.45;;;2.25;;
8982;SDS011;20979;59.850;10.660;2022-08-18T10:19:25;4.97;;;2.33;;
8982;SDS011;20979;59.850;10.660;2022-08-18T10:22:00;2.80;;;2.20;;
8982;SDS011;20979;59.850;10.660;2022-08-18T10:24:28;3.30;;;2.30;;
8982;SDS011;20979;59.850;10.660;2022-08-18T10:26:59;3.37;;;2.30;;
8982;SDS011;20979;59.850;10.660;2022-08-18T10:29:49;5.22;;;2.20;;
8982;SDS011;20979;59.850;10.660;2022-08-18T10:32:22;3.60;;;2.30;;
8982;SDS011;20979;59.850;10.660;2022-08-18T10:34:52;4.25;;;1.90;;
8982;SDS011;20979;59.850;10.660;2022-08-18T10:37:21;2.70;;;2.10;;
8982;SDS011;20979;59.850;10.660;2022-08-18T10:39:51;2.28;;;2.08;;
8982;SDS011;20979;59.850;10.660;2022-08-18T10:42:23;4.38;;;2.40;;
8982;SDS011;20979;59.850;10.660;2022-08-18T10:44:52;4.47;;;2.20;;
8982;SDS011;20979;59.850;10.660;2022-08-18T10:47:22;3.77;;;2.10;;
8982;SDS011;20979;59.850;10.660;2022-08-18T10:49:49;3.93;;;2.37;;
8982;SDS011;20979;59.850;10.660;2022-08-18T10:52:30;3.77;;;2.47;;
8982;SDS011;20979;59.850;10.660;2022-08-18T10:55:08;3.70;;;2.50;;
8982;SDS011;20979;59.850;10.660;2022-08-18T11:00:42;4.07;;;2.25;;
8982;SDS011;20979;59.850;10.660;2022-08-18T11:03:12;3.20;;;2.30;;
8982;SDS011;20979;59.850;10.660;2022-08-18T11:05:44;3.00;;;2.10;;
8982;SDS011;20979;59.850;10.660;2022-08-18T11:08:13;3.17;;;2.43;;
8982;SDS011;20979;59.850;10.660;2022-08-18T11:11:04;6.30;;;2.40;;
8982;SDS011;20979;59.850;10.660;2022-08-18T11:19:59;4.17;;;2.40;;
8982;SDS011;20979;59.850;10.660;2022-08-18T11:22:34;5.13;;;2.80;;
8982;SDS011;20979;59.850;10.660;2022-08-18T11:25:02;5.73;;;2.43;;
8982;SDS011;20979;59.850;10.660;2022-08-18T11:27:32;4.73;;;2.60;;
8982;SDS011;20979;59.850;10.660;2022-08-18T11:30:05;4.77;;;2.67;;
8982;SDS011;20979;59.850;10.660;2022-08-18T11:32:35;4.07;;;2.63;;
8982;SDS011;20979;59.850;10.660;2022-08-18T11:35:05;4.72;;;2.60;;
8982;SDS011;20979;59.850;10.660;2022-08-18T11:37:34;3.13;;;2.17;;
8982;SDS011;20979;59.850;10.660;2022-08-18T11:40:07;4.50;;;2.40;;
8982;SDS011;20979;59.850;10.660;2022-08-18T11:42:37;5.00;;;2.60;;
8982;SDS011;20979;59.850;10.660;2022-08-18T11:45:09;4.05;;;2.38;;
8982;SDS011;20979;59.850;10.660;2022-08-18T11:50:43;3.83;;;2.20;;
8982;SDS011;20979;59.850;10.660;2022-08-18T11:53:12;5.57;;;2.47;;
8982;SDS011;20979;59.850;10.660;2022-08-18T11:58:42;5.90;;;2.30;;
8982;SDS011;20979;59.850;10.660;2022-08-18T12:04:05;3.45;;;2.45;;
8982;SDS011;20979;59.850;10.660;2022-08-18T12:07:06;4.15;;;2.50;;
8982;SDS011;20979;59.850;10.660;2022-08-18T12:18:55;4.43;;;2.75;;
8982;SDS011;20979;59.850;10.660;2022-08-18T12:21:43;6.80;;;2.63;;
8982;SDS011;20979;59.850;10.660;2022-08-18T12:24:26;3.47;;;2.45;;
8982;SDS011;20979;59.850;10.660;2022-08-18T12:27:17;4.45;;;2.75;;
8982;SDS011;20979;59.850;10.660;2022-08-18T12:29:43;4.97;;;2.83;;
8982;SDS011;20979;59.850;10.660;2022-08-18T12:32:12;6.20;;;2.50;;
8982;SDS011;20979;59.850;10.660;2022-08-18T12:34:39;3.75;;;2.50;;
8982;SDS011;20979;59.850;10.660;2022-08-18T12:46:37;3.70;;;2.40;;
8982;SDS011;20979;59.850;10.660;2022-08-18T12:49:40;4.63;;;2.30;;
8982;SDS011;20979;59.850;10.660;2022-08-18T12:57:39;3.72;;;2.35;;
8982;SDS011;20979;59.850;10.660;2022-08-18T13:00:08;5.53;;;2.60;;
8982;SDS011;20979;59.850;10.660;2022-08-18T13:08:46;3.67;;;2.38;;
8982;SDS011;20979;59.850;10.660;2022-08-18T13:14:31;5.43;;;2.75;;
8982;SDS011;20979;59.850;10.660;2022-08-18T13:16:58;3.88;;;2.40;;
8982;SDS011;20979;59.850;10.660;2022-08-18T13:19:46;5.65;;;2.80;;
8982;SDS011;20979;59.850;10.660;2022-08-18T13:22:16;6.55;;;2.85;;
8982;SDS011;20979;59.850;10.660;2022-08-18T13:33:30;4.93;;;2.10;;
8982;SDS011;20979;59.850;10.660;2022-08-18T13:39:13;3.22;;;2.30;;
8982;SDS011;20979;59.850;10.660;2022-08-18T13:44:53;4.35;;;2.33;;
8982;SDS011;20979;59.850;10.660;2022-08-18T13:50:20;5.07;;;2.40;;
8982;SDS011;20979;59.850;10.660;2022-08-18T13:52:50;5.25;;;2.47;;
8982;SDS011;20979;59.850;10.660;2022-08-18T13:55:30;5.00;;;2.65;;
8982;SDS011;20979;59.850;10.660;2022-08-18T13:57:57;3.03;;;2.20;;
8982;SDS011;20979;59.850;10.660;2022-08-18T14:00:56;4.55;;;2.28;;
8982;SDS011;20979;59.850;10.660;2022-08-18T14:03:36;5.68;;;2.40;;
8982;SDS011;20979;59.850;10.660;2022-08-18T14:12:05;5.85;;;2.75;;
8982;SDS011;20979;59.850;10.660;2022-08-18T14:14:33;4.53;;;2.63;;
8982;SDS011;20979;59.850;10.660;2022-08-18T14:17:27;3.67;;;2.47;;
8982;SDS011;20979;59.850;10.660;2022-08-18T14:20:14;5.35;;;2.95;;
8982;SDS011;20979;59.850;10.660;2022-08-18T14:24:01;4.55;;;2.47;;
8982;SDS011;20979;59.850;10.660;2022-08-18T14:26:14;5.22;;;2.50;;
8982;SDS011;20979;59.850;10.660;2022-08-18T14:31:52;4.55;;;2.60;;
8982;SDS011;20979;59.850;10.660;2022-08-18T14:34:19;5.28;;;2.63;;
8982;SDS011;20979;59.850;10.660;2022-08-18T14:36:47;6.32;;;2.85;;
8982;SDS011;20979;59.850;10.660;2022-08-18T14:39:16;6.35;;;4.07;;
8982;SDS011;20979;59.850;10.660;2022-08-18T14:41:44;6.38;;;4.97;;
8982;SDS011;20979;59.850;10.660;2022-08-18T14:44:11;6.93;;;5.60;;
8982;SDS011;20979;59.850;10.660;2022-08-18T14:46:49;7.43;;;4.28;;
8982;SDS011;20979;59.850;10.660;2022-08-18T14:49:38;6.30;;;3.20;;
8982;SDS011;20979;59.850;10.660;2022-08-18T14:52:07;6.15;;;3.00;;
8982;SDS011;20979;59.850;10.660;2022-08-18T14:54:34;5.50;;;2.80;;
8982;SDS011;20979;59.850;10.660;2022-08-18T14:57:02;6.10;;;2.95;;
8982;SDS011;20979;59.850;10.660;2022-08-18T14:59:33;5.28;;;2.60;;
8982;SDS011;20979;59.850;10.660;2022-08-18T15:02:00;4.90;;;2.92;;
8982;SDS011;20979;59.850;10.660;2022-08-18T15:04:30;4.72;;;2.90;;
8982;SDS011;20979;59.850;10.660;2022-08-18T15:06:59;4.63;;;2.97;;
8982;SDS011;20979;59.850;10.660;2022-08-18T15:09:26;6.07;;;3.00;;
8982;SDS011;20979;59.850;10.660;2022-08-18T15:11:55;7.30;;;2.70;;
8982;SDS011;20979;59.850;10.660;2022-08-18T15:14:22;7.72;;;3.13;;
8982;SDS011;20979;59.850;10.660;2022-08-18T15:16:50;7.00;;;2.75;;
8982;SDS011;20979;59.850;10.660;2022-08-18T15:19:18;5.05;;;2.58;;
8982;SDS011;20979;59.850;10.660;2022-08-18T15:21:46;5.03;;;2.70;;
8982;SDS011;20979;59.850;10.660;2022-08-18T15:24:33;5.07;;;2.60;;
8982;SDS011;20979;59.850;10.660;2022-08-18T15:27:24;4.32;;;2.63;;
8982;SDS011;20979;59.850;10.660;2022-08-18T15:29:55;5.95;;;2.58;;
8982;SDS011;20979;59.850;10.660;2022-08-18T15:32:23;8.38;;;2.90;;
8982;SDS011;20979;59.850;10.660;2022-08-18T15:34:50;5.70;;;2.60;;
8982;SDS011;20979;59.850;10.660;2022-08-18T15:37:17;2.95;;;2.33;;
8982;SDS011;20979;59.850;10.660;2022-08-18T15:39:47;7.47;;;3.00;;
8982;SDS011;20979;59.850;10.660;2022-08-18T15:42:15;4.65;;;2.45;;
8982;SDS011;20979;59.850;10.660;2022-08-18T15:44:45;5.00;;;2.65;;
8982;SDS011;20979;59.850;10.660;2022-08-18T15:47:13;7.05;;;3.08;;
8982;SDS011;20979;59.850;10.660;2022-08-18T15:49:54;4.85;;;2.45;;
8982;SDS011;20979;59.850;10.660;2022-08-18T15:52:21;4.18;;;2.70;;
8982;SDS011;20979;59.850;10.660;2022-08-18T15:54:59;5.47;;;2.80;;
8982;SDS011;20979;59.850;10.660;2022-08-18T15:57:26;6.03;;;2.75;;
8982;SDS011;20979;59.850;10.660;2022-08-18T15:59:59;5.97;;;2.80;;
8982;SDS011;20979;59.850;10.660;2022-08-18T16:02:32;4.38;;;2.65;;
8982;SDS011;20979;59.850;10.660;2022-08-18T16:05:02;5.45;;;2.80;;
8982;SDS011;20979;59.850;10.660;2022-08-18T16:07:30;4.68;;;2.75;;
8982;SDS011;20979;59.850;10.660;2022-08-18T16:09:59;5.57;;;2.92;;
8982;SDS011;20979;59.850;10.660;2022-08-18T16:12:26;3.78;;;2.63;;
8982;SDS011;20979;59.850;10.660;2022-08-18T16:14:54;5.20;;;2.80;;
8982;SDS011;20979;59.850;10.660;2022-08-18T16:17:23;7.53;;;2.85;;
8982;SDS011;20979;59.850;10.660;2022-08-18T16:19:50;5.47;;;2.65;;
8982;SDS011;20979;59.850;10.660;2022-08-18T16:22:18;3.45;;;2.40;;
8982;SDS011;20979;59.850;10.660;2022-08-18T16:24:45;4.40;;;2.63;;
8982;SDS011;20979;59.850;10.660;2022-08-18T16:27:14;3.80;;;2.33;;
8982;SDS011;20979;59.850;10.660;2022-08-18T16:29:41;5.07;;;2.65;;
8982;SDS011;20979;59.850;10.660;2022-08-18T16:32:09;3.53;;;2.47;;
8982;SDS011;20979;59.850;10.660;2022-08-18T16:34:38;6.40;;;2.83;;
8982;SDS011;20979;59.850;10.660;2022-08-18T16:37:05;4.37;;;2.60;;
8982;SDS011;20979;59.850;10.660;2022-08-18T16:39:35;5.53;;;2.80;;
8982;SDS011;20979;59.850;10.660;2022-08-18T16:42:15;4.85;;;2.65;;
8982;SDS011;20979;59.850;10.660;2022-08-18T16:44:43;4.93;;;2.50;;
8982;SDS011;20979;59.850;10.660;2022-08-18T16:47:10;3.78;;;2.60;;
8982;SDS011;20979;59.850;10.660;2022-08-18T16:49:38;6.05;;;2.75;;
8982;SDS011;20979;59.850;10.660;2022-08-18T16:52:24;5.00;;;2.70;;
8982;SDS011;20979;59.850;10.660;2022-08-18T16:57:40;5.60;;;2.60;;
8982;SDS011;20979;59.850;10.660;2022-08-18T17:00:25;5.73;;;2.90;;
8982;SDS011;20979;59.850;10.660;2022-08-18T17:03:10;6.73;;;2.73;;
8982;SDS011;20979;59.850;10.660;2022-08-18T17:05:59;4.75;;;2.70;;
8982;SDS011;20979;59.850;10.660;2022-08-18T17:08:27;5.85;;;3.00;;
8982;SDS011;20979;59.850;10.660;2022-08-18T17:10:58;6.70;;;3.13;;
8982;SDS011;20979;59.850;10.660;2022-08-18T17:14:00;7.20;;;3.10;;
8982;SDS011;20979;59.850;10.660;2022-08-18T17:16:28;6.03;;;3.23;;
8982;SDS011;20979;59.850;10.660;2022-08-18T17:18:55;5.03;;;2.77;;
8982;SDS011;20979;59.850;10.660;2022-08-18T17:21:25;5.67;;;3.20;;
8982;SDS011;20979;59.850;10.660;2022-08-18T17:24:04;7.70;;;2.70;;
8982;SDS011;20979;59.850;10.660;2022-08-18T17:26:46;4.87;;;2.60;;
8982;SDS011;20979;59.850;10.660;2022-08-18T17:29:26;5.90;;;3.00;;
8982;SDS011;20979;59.850;10.660;2022-08-18T17:31:55;5.20;;;2.70;;
8982;SDS011;20979;59.850;10.660;2022-08-18T17:34:26;9.67;;;3.17;;
8982;SDS011;20979;59.850;10.660;2022-08-18T17:36:56;5.10;;;3.03;;
8982;SDS011;20979;59.850;10.660;2022-08-18T17:39:27;3.92;;;2.88;;
8982;SDS011;20979;59.850;10.660;2022-08-18T17:41:56;7.20;;;2.93;;
8982;SDS011;20979;59.850;10.660;2022-08-18T17:44:43;4.82;;;2.97;;
8982;SDS011;20979;59.850;10.660;2022-08-18T17:47:13;4.63;;;2.87;;
8982;SDS011;20979;59.850;10.660;2022-08-18T17:49:43;5.43;;;3.00;;
8982;SDS011;20979;59.850;10.660;2022-08-18T17:52:30;4.32;;;2.60;;
8982;SDS011;20979;59.850;10.660;2022-08-18T17:55:00;6.93;;;3.10;;
8982;SDS011;20979;59.850;10.660;2022-08-18T17:57:35;6.93;;;3.00;;
8982;SDS011;20979;59.850;10.660;2022-08-18T18:00:12;5.60;;;3.33;;
8982;SDS011;20979;59.850;10.660;2022-08-18T18:02:55;5.60;;;3.50;;
8982;SDS011;20979;59.850;10.660;2022-08-18T18:05:40;6.63;;;3.30;;
8982;SDS011;20979;59.850;10.660;2022-08-18T18:08:18;5.00;;;2.93;;
8982;SDS011;20979;59.850;10.660;2022-08-18T18:10:51;6.90;;;3.40;;
8982;SDS011;20979;59.850;10.660;2022-08-18T18:13:22;6.43;;;3.10;;
8982;SDS011;20979;59.850;10.660;2022-08-18T18:16:19;5.13;;;3.20;;
8982;SDS011;20979;59.850;10.660;2022-08-18T18:18:52;5.83;;;3.40;;
8982;SDS011;20979;59.850;10.660;2022-08-18T18:21:22;4.93;;;3.13;;
8982;SDS011;20979;59.850;10.660;2022-08-18T18:23:51;4.17;;;2.87;;
8982;SDS011;20979;59.850;10.660;2022-08-18T18:26:25;4.47;;;3.00;;
8982;SDS011;20979;59.850;10.660;2022-08-18T18:29:15;6.40;;;3.20;;
8982;SDS011;20979;59.850;10.660;2022-08-18T18:31:46;7.67;;;3.60;;
8982;SDS011;20979;59.850;10.660;2022-08-18T18:37:22;4.47;;;3.20;;
8982;SDS011;20979;59.850;10.660;2022-08-18T18:39:54;5.90;;;3.07;;
8982;SDS011;20979;59.850;10.660;2022-08-18T18:42:23;5.63;;;2.67;;
8982;SDS011;20979;59.850;10.660;2022-08-18T18:44:54;6.10;;;3.20;;
8982;SDS011;20979;59.850;10.660;2022-08-18T18:50:26;9.00;;;3.90;;
8982;SDS011;20979;59.850;10.660;2022-08-18T18:53:02;5.27;;;3.50;;
8982;SDS011;20979;59.850;10.660;2022-08-18T18:55:44;6.13;;;3.57;;
8982;SDS011;20979;59.850;10.660;2022-08-18T18:58:19;5.37;;;3.27;;
8982;SDS011;20979;59.850;10.660;2022-08-18T19:00:59;6.07;;;3.33;;
8982;SDS011;20979;59.850;10.660;2022-08-18T19:03:34;6.87;;;3.53;;
8982;SDS011;20979;59.850;10.660;2022-08-18T19:06:16;5.80;;;3.07;;
8982;SDS011;20979;59.850;10.660;2022-08-18T19:08:50;5.70;;;3.50;;
8982;SDS011;20979;59.850;10.660;2022-08-18T19:11:31;7.10;;;3.57;;
8982;SDS011;20979;59.850;10.660;2022-08-18T19:14:04;5.30;;;3.87;;
8982;SDS011;20979;59.850;10.660;2022-08-18T19:16:36;4.67;;;3.50;;
8982;SDS011;20979;59.850;10.660;2022-08-18T19:19:06;6.53;;;3.60;;
8982;SDS011;20979;59.850;10.660;2022-08-18T19:21:39;5.73;;;3.67;;
8982;SDS011;20979;59.850;10.660;2022-08-18T19:24:09;4.97;;;3.80;;
8982;SDS011;20979;59.850;10.660;2022-08-18T19:26:40;5.57;;;3.60;;
8982;SDS011;20979;59.850;10.660;2022-08-18T19:29:28;4.97;;;3.53;;
8982;SDS011;20979;59.850;10.660;2022-08-18T19:31:57;4.87;;;4.03;;
8982;SDS011;20979;59.850;10.660;2022-08-18T19:34:48;5.43;;;3.87;;
8982;SDS011;20979;59.850;10.660;2022-08-18T19:37:23;7.67;;;4.00;;
8982;SDS011;20979;59.850;10.660;2022-08-18T19:39:54;5.87;;;3.93;;
8982;SDS011;20979;59.850;10.660;2022-08-18T19:48:21;5.53;;;4.00;;
8982;SDS011;20979;59.850;10.660;2022-08-18T19:54:41;7.50;;;4.50;;
8982;SDS011;20979;59.850;10.660;2022-08-18T19:57:59;6.53;;;3.93;;
8982;SDS011;20979;59.850;10.660;2022-08-18T20:00:32;6.77;;;3.53;;
8982;SDS011;20979;59.850;10.660;2022-08-18T20:06:22;5.97;;;3.40;;
8982;SDS011;20979;59.850;10.660;2022-08-18T20:09:15;4.83;;;3.63;;
8982;SDS011;20979;59.850;10.660;2022-08-18T20:12:01;3.87;;;3.20;;
8982;SDS011;20979;59.850;10.660;2022-08-18T20:21:14;4.83;;;3.57;;
8982;SDS011;20979;59.850;10.660;2022-08-18T20:51:14;5.47;;;3.30;;
8982;SDS011;20979;59.850;10.660;2022-08-18T21:03:05;6.53;;;3.30;;
8982;SDS011;20979;59.850;10.660;2022-08-18T21:08:45;6.30;;;3.67;;
8982;SDS011;20979;59.850;10.660;2022-08-18T21:11:20;6.70;;;3.80;;
8982;SDS011;20979;59.850;10.660;2022-08-18T21:13:50;6.80;;;3.73;;
8982;SDS011;20979;59.850;10.660;2022-08-18T21:19:41;6.20;;;3.90;;
8982;SDS011;20979;59.850;10.660;2022-08-18T21:22:26;6.07;;;3.77;;
8982;SDS011;20979;59.850;10.660;2022-08-18T21:25:11;6.50;;;3.40;;
8982;SDS011;20979;59.850;10.660;2022-08-18T21:27:56;6.87;;;3.57;;
8982;SDS011;20979;59.850;10.660;2022-08-18T21:33:36;5.80;;;3.80;;
8982;SDS011;20979;59.850;10.660;2022-08-18T21:42:00;4.80;;;3.40;;
8982;SDS011;20979;59.850;10.660;2022-08-18T21:48:06;6.53;;;3.40;;
8982;SDS011;20979;59.850;10.660;2022-08-18T22:06:38;6.20;;;4.33;;
8982;SDS011;20979;59.850;10.660;2022-08-18T22:12:35;4.20;;;3.80;;
8982;SDS011;20979;59.850;10.660;2022-08-18T22:24:17;7.40;;;4.30;;
8982;SDS011;20979;59.850;10.660;2022-08-18T23:00:44;7.60;;;4.30;;
8982;SDS011;20979;59.850;10.660;2022-08-18T23:12:59;5.53;;;3.50;;
